createdAt,value
2022-11-17T00:01:55.913Z,4.18
2022-11-17T00:04:25.410Z,4.20
2022-11-17T00:06:52.563Z,4.25
2022-11-17T00:09:19.380Z,4.28
2022-11-17T00:12:06.489Z,4.28
2022-11-17T00:14:36.509Z,4.30
2022-11-17T00:17:07.172Z,4.27
2022-11-17T00:19:52.386Z,4.23
2022-11-17T00:22:19.331Z,4.22
2022-11-17T00:24:46.284Z,4.22
2022-11-17T00:27:13.231Z,4.22
2022-11-17T00:29:40.116Z,4.22
2022-11-17T00:32:33.027Z,4.27
2022-11-17T00:35:00.105Z,4.27
2022-11-17T00:37:28.976Z,4.28
2022-11-17T00:40:00.567Z,4.29
2022-11-17T00:42:27.589Z,4.36
2022-11-17T00:44:54.282Z,4.40
2022-11-17T00:47:20.995Z,4.40
2022-11-17T00:49:47.697Z,4.44
2022-11-17T00:52:14.488Z,4.43
2022-11-17T00:54:41.196Z,4.42
2022-11-17T00:57:07.904Z,4.49
2022-11-17T00:59:34.587Z,4.51
2022-11-17T01:02:01.362Z,4.55
2022-11-17T01:04:28.198Z,4.57
2022-11-17T01:06:54.940Z,4.57
2022-11-17T01:09:24.002Z,4.57
2022-11-17T01:11:52.281Z,4.59
2022-11-17T01:14:22.418Z,4.58
2022-11-17T01:16:49.255Z,4.56
2022-11-17T01:19:17.277Z,4.55
2022-11-17T01:21:44.293Z,4.54
2022-11-17T01:24:12.128Z,4.53
2022-11-17T01:26:40.081Z,4.44
2022-11-17T01:29:07.964Z,4.42
2022-11-17T01:31:38.203Z,4.37
2022-11-17T01:34:05.981Z,4.34
2022-11-17T01:36:54.138Z,4.30
2022-11-17T01:39:20.852Z,4.35
2022-11-17T01:41:47.686Z,4.40
2022-11-17T01:44:36.323Z,4.39
2022-11-17T01:47:14.818Z,4.40
2022-11-17T01:49:41.625Z,4.37
2022-11-17T01:52:11.013Z,4.40
2022-11-17T01:54:40.584Z,4.44
2022-11-17T01:57:13.451Z,4.37
2022-11-17T01:59:45.757Z,4.45
2022-11-17T02:02:12.484Z,4.42
2022-11-17T02:04:49.666Z,4.47
2022-11-17T02:07:27.132Z,4.53
2022-11-17T02:09:54.150Z,4.58
2022-11-17T02:12:23.513Z,4.62
2022-11-17T02:14:51.068Z,4.59
2022-11-17T02:17:19.548Z,4.63
2022-11-17T02:20:04.705Z,4.65
2022-11-17T02:22:31.388Z,4.69
2022-11-17T02:24:58.003Z,4.71
2022-11-17T02:27:55.790Z,4.73
2022-11-17T02:30:23.677Z,4.73
2022-11-17T02:33:02.584Z,4.75
2022-11-17T02:35:40.360Z,4.77
2022-11-17T02:38:20.522Z,4.78
2022-11-17T02:40:55.715Z,4.72
2022-11-17T02:43:49.560Z,4.77
2022-11-17T02:46:24.755Z,4.73
2022-11-17T02:49:03.549Z,4.66
2022-11-17T02:51:34.338Z,4.68
2022-11-17T02:54:02.178Z,4.69
2022-11-17T02:56:28.856Z,4.70
2022-11-17T02:59:02.584Z,4.64
2022-11-17T03:01:52.111Z,4.66
2022-11-17T03:04:27.099Z,4.62
2022-11-17T03:07:21.219Z,4.64
2022-11-17T03:09:56.656Z,4.67
2022-11-17T03:12:41.588Z,4.62
2022-11-17T03:15:08.338Z,4.68
2022-11-17T03:18:20.284Z,4.68
2022-11-17T03:21:08.444Z,4.70
2022-11-17T03:23:50.112Z,4.71
2022-11-17T03:26:31.369Z,4.78
2022-11-17T03:29:01.665Z,4.80
2022-11-17T03:31:31.367Z,4.79
2022-11-17T03:34:00.795Z,4.84
2022-11-17T03:36:35.621Z,4.89
2022-11-17T03:39:12.784Z,4.93
2022-11-17T03:41:43.172Z,4.91
2022-11-17T03:44:11.820Z,4.93
2022-11-17T03:46:39.212Z,4.91
2022-11-17T03:49:29.221Z,4.83
2022-11-17T03:51:56.373Z,4.86
2022-11-17T03:54:23.239Z,4.87
2022-11-17T03:57:05.991Z,4.92
2022-11-17T03:59:52.074Z,4.93
2022-11-17T04:02:21.088Z,4.87
2022-11-17T04:05:05.988Z,4.88
2022-11-17T04:07:34.990Z,4.94
2022-11-17T04:10:02.394Z,4.93
2022-11-17T04:12:47.877Z,4.99
2022-11-17T04:15:33.102Z,5.00
2022-11-17T04:18:00.214Z,5.00
2022-11-17T04:20:26.976Z,4.97
2022-11-17T04:23:08.722Z,5.06
2022-11-17T04:26:02.101Z,5.05
2022-11-17T04:28:39.670Z,5.04
2022-11-17T04:31:11.143Z,4.94
2022-11-17T04:33:40.215Z,5.09
2022-11-17T04:36:07.716Z,5.10
2022-11-17T04:38:34.828Z,5.08
2022-11-17T04:41:25.400Z,5.11
2022-11-17T04:43:52.699Z,5.13
2022-11-17T04:46:19.918Z,5.15
2022-11-17T04:48:47.762Z,5.13
2022-11-17T04:51:16.252Z,5.19
2022-11-17T04:53:44.308Z,5.19
2022-11-17T04:56:11.293Z,5.19
2022-11-17T04:58:38.019Z,5.21
2022-11-17T05:01:13.890Z,5.22
2022-11-17T05:03:53.453Z,5.08
2022-11-17T05:06:32.285Z,5.25
2022-11-17T05:09:01.097Z,5.24
2022-11-17T05:11:48.135Z,5.23
2022-11-17T05:14:17.498Z,5.27
2022-11-17T05:17:08.672Z,5.23
2022-11-17T05:19:46.504Z,5.24
2022-11-17T05:22:39.192Z,5.23
2022-11-17T05:25:10.986Z,5.20
2022-11-17T05:27:38.541Z,5.21
2022-11-17T05:30:09.220Z,5.06
2022-11-17T05:32:35.916Z,5.19
2022-11-17T05:35:02.636Z,5.09
2022-11-17T05:37:29.511Z,5.19
2022-11-17T05:39:56.252Z,5.20
2022-11-17T05:42:22.971Z,5.20
2022-11-17T05:44:49.815Z,5.14
2022-11-17T05:47:16.974Z,5.19
2022-11-17T05:49:43.915Z,5.20
2022-11-17T05:52:10.612Z,5.24
2022-11-17T05:54:37.412Z,5.27
2022-11-17T05:57:18.343Z,5.29
2022-11-17T05:59:59.663Z,5.31
2022-11-17T06:02:34.989Z,5.31
2022-11-17T06:05:02.696Z,5.31
2022-11-17T06:07:29.669Z,5.35
2022-11-17T06:09:56.896Z,5.33
2022-11-17T06:12:23.828Z,5.35
2022-11-17T06:14:50.647Z,5.39
2022-11-17T06:17:25.425Z,5.39
2022-11-17T06:19:57.590Z,5.46
2022-11-17T06:22:27.040Z,5.47
2022-11-17T06:24:54.541Z,5.54
2022-11-17T06:27:21.971Z,5.53
2022-11-17T06:29:49.730Z,5.58
2022-11-17T06:32:18.927Z,5.64
2022-11-17T06:34:53.857Z,5.70
2022-11-17T06:37:23.811Z,5.75
2022-11-17T06:39:50.673Z,5.76
2022-11-17T06:42:17.441Z,5.77
2022-11-17T06:44:44.263Z,5.77
2022-11-17T06:47:13.803Z,5.75
2022-11-17T06:49:40.539Z,5.74
2022-11-17T06:52:07.244Z,5.75
2022-11-17T06:54:33.955Z,5.76
2022-11-17T06:57:00.852Z,5.75
2022-11-17T06:59:28.042Z,5.73
2022-11-17T07:01:54.867Z,5.73
2022-11-17T07:04:21.616Z,5.77
2022-11-17T07:06:48.371Z,5.75
2022-11-17T07:09:15.178Z,5.71
2022-11-17T07:11:42.015Z,5.71
2022-11-17T07:14:08.833Z,5.72
2022-11-17T07:16:35.564Z,5.75
2022-11-17T07:19:03.836Z,5.68
2022-11-17T07:21:31.640Z,5.67
2022-11-17T07:23:58.433Z,5.70
2022-11-17T07:26:25.207Z,5.75
2022-11-17T07:28:52.257Z,5.78
2022-11-17T07:31:19.148Z,5.82
2022-11-17T07:33:45.919Z,5.80
2022-11-17T07:36:15.015Z,5.76
2022-11-17T07:38:42.254Z,5.72
2022-11-17T07:41:10.358Z,5.76
2022-11-17T07:43:37.483Z,5.76
2022-11-17T07:46:11.553Z,5.67
2022-11-17T07:48:39.243Z,5.66
2022-11-17T07:51:06.741Z,5.66
2022-11-17T07:53:35.301Z,5.59
2022-11-17T07:56:07.644Z,5.64
2022-11-17T07:58:35.669Z,5.72
2022-11-17T08:01:12.627Z,5.87
2022-11-17T08:03:40.033Z,5.94
2022-11-17T08:06:08.327Z,6.07
2022-11-17T08:08:37.098Z,6.15
2022-11-17T08:11:06.140Z,6.17
2022-11-17T08:13:33.566Z,6.31
2022-11-17T08:16:00.427Z,6.37
2022-11-17T08:18:28.163Z,6.38
2022-11-17T08:21:03.933Z,6.48
2022-11-17T08:23:31.431Z,6.40
2022-11-17T08:25:58.563Z,6.44
2022-11-17T08:28:25.246Z,6.45
2022-11-17T08:30:51.999Z,6.11
2022-11-17T08:33:18.763Z,6.06
2022-11-17T08:35:45.601Z,6.15
2022-11-17T08:38:15.255Z,6.16
2022-11-17T08:40:43.279Z,6.25
2022-11-17T08:43:13.382Z,6.19
2022-11-17T08:45:45.466Z,6.07
2022-11-17T08:48:13.242Z,6.31
2022-11-17T08:50:40.120Z,6.32
2022-11-17T08:53:06.855Z,6.29
2022-11-17T08:55:40.979Z,6.30
2022-11-17T08:58:09.377Z,6.44
2022-11-17T09:00:36.389Z,6.48
2022-11-17T09:03:07.980Z,6.49
2022-11-17T09:05:39.588Z,6.52
2022-11-17T09:08:37.989Z,6.52
2022-11-17T09:10:54.023Z,6.50
2022-11-17T09:13:20.737Z,6.37
2022-11-17T09:15:47.521Z,6.49
2022-11-17T09:18:14.509Z,6.54
2022-11-17T09:20:45.435Z,6.52
2022-11-17T09:23:12.957Z,6.63
2022-11-17T09:25:40.049Z,6.60
2022-11-17T09:28:06.838Z,6.69
2022-11-17T09:30:33.777Z,6.64
2022-11-17T09:33:00.599Z,6.76
2022-11-17T09:35:27.409Z,6.79
2022-11-17T09:37:59.690Z,6.88
2022-11-17T09:40:26.594Z,6.87
2022-11-17T09:42:53.770Z,6.87
2022-11-17T09:45:20.413Z,6.85
2022-11-17T09:48:12.491Z,6.70
2022-11-17T09:50:46.198Z,6.76
2022-11-17T09:53:22.842Z,6.90
2022-11-17T09:56:01.533Z,6.98
2022-11-17T09:58:38.324Z,7.06
2022-11-17T10:01:06.645Z,7.10
2022-11-17T10:03:43.642Z,7.18
2022-11-17T10:06:16.895Z,7.26
2022-11-17T10:09:00.615Z,7.25
2022-11-17T10:11:37.486Z,7.22
2022-11-17T10:14:13.871Z,7.18
2022-11-17T10:16:45.743Z,6.95
2022-11-17T10:19:25.046Z,6.97
2022-11-17T10:22:20.692Z,6.93
2022-11-17T10:24:55.633Z,7.03
2022-11-17T10:27:22.501Z,7.03
2022-11-17T10:30:01.321Z,7.12
2022-11-17T10:32:36.976Z,7.17
2022-11-17T10:35:27.492Z,7.20
2022-11-17T10:38:17.785Z,7.32
2022-11-17T10:40:49.398Z,7.45
2022-11-17T10:43:17.335Z,7.61
2022-11-17T10:45:46.074Z,7.83
2022-11-17T10:48:25.184Z,7.91
2022-11-17T10:51:23.043Z,8.13
2022-11-17T10:54:17.425Z,8.37
2022-11-17T10:56:53.719Z,8.38
2022-11-17T10:59:26.054Z,8.39
2022-11-17T11:01:53.223Z,8.38
2022-11-17T11:04:28.218Z,8.42
2022-11-17T11:07:14.271Z,8.37
2022-11-17T11:10:06.594Z,8.40
2022-11-17T11:12:56.906Z,8.35
2022-11-17T11:15:25.013Z,8.31
2022-11-17T11:17:52.246Z,8.32
2022-11-17T11:20:24.588Z,8.50
2022-11-17T11:23:08.317Z,9.09
2022-11-17T11:25:40.856Z,9.59
2022-11-17T11:28:54.501Z,9.74
2022-11-17T11:31:44.702Z,9.74
2022-11-17T11:34:18.013Z,9.36
2022-11-17T11:37:10.632Z,9.15
2022-11-17T11:40:11.645Z,9.07
2022-11-17T11:42:57.866Z,9.52
2022-11-17T11:45:34.405Z,9.71
2022-11-17T11:48:19.044Z,10.13
2022-11-17T11:51:02.041Z,10.17
2022-11-17T11:53:43.954Z,9.91
2022-11-17T11:56:19.063Z,10.14
2022-11-17T11:58:54.052Z,10.26
2022-11-17T12:01:22.661Z,10.51
2022-11-17T12:04:03.058Z,10.97
2022-11-17T12:06:53.885Z,12.03
2022-11-17T12:09:41.117Z,12.13
2022-11-17T12:12:13.554Z,11.30
2022-11-17T12:14:41.329Z,10.71
2022-11-17T12:17:14.035Z,9.96
2022-11-17T12:19:54.446Z,9.75
2022-11-17T12:22:30.525Z,9.40
2022-11-17T12:25:16.384Z,9.16
2022-11-17T12:27:55.758Z,9.30
2022-11-17T12:30:40.025Z,9.70
2022-11-17T12:33:08.868Z,10.54
2022-11-17T12:35:39.929Z,11.11
2022-11-17T12:38:15.781Z,11.57
2022-11-17T12:40:54.174Z,12.33
2022-11-17T12:43:27.893Z,12.19
2022-11-17T12:46:17.300Z,12.55
2022-11-17T12:49:12.816Z,12.24
2022-11-17T12:51:54.664Z,12.54
2022-11-17T12:54:33.720Z,12.99
2022-11-17T12:57:07.022Z,13.56
2022-11-17T12:59:54.871Z,14.05
2022-11-17T13:02:40.770Z,14.62
2022-11-17T13:05:16.874Z,15.03
2022-11-17T13:07:43.689Z,15.30
2022-11-17T13:10:28.213Z,15.60
2022-11-17T13:13:16.437Z,15.77
2022-11-17T13:15:45.398Z,15.63
2022-11-17T13:18:36.615Z,15.26
2022-11-17T13:21:18.433Z,14.60
2022-11-17T13:23:46.418Z,14.65
2022-11-17T13:26:16.014Z,14.47
2022-11-17T13:28:43.785Z,14.16
2022-11-17T13:31:19.201Z,13.81
2022-11-17T13:34:16.748Z,13.48
2022-11-17T13:36:55.373Z,13.16
2022-11-17T13:39:27.020Z,12.92
2022-11-17T13:41:55.300Z,12.62
2022-11-17T13:44:27.918Z,12.44
2022-11-17T13:46:55.367Z,12.28
2022-11-17T13:49:31.140Z,12.22
2022-11-17T13:51:57.974Z,12.26
2022-11-17T13:54:25.046Z,12.22
2022-11-17T13:56:54.336Z,12.06
2022-11-17T13:59:27.409Z,11.99
2022-11-17T14:02:30.022Z,11.92
2022-11-17T14:05:14.420Z,11.79
2022-11-17T14:07:43.407Z,11.61
2022-11-17T14:10:22.002Z,11.26
2022-11-17T14:13:02.173Z,10.90
2022-11-17T14:15:36.657Z,10.78
2022-11-17T14:18:18.889Z,10.88
2022-11-17T14:20:45.811Z,11.13
2022-11-17T14:23:15.879Z,11.08
2022-11-17T14:25:45.346Z,10.96
2022-11-17T14:28:18.210Z,11.15
2022-11-17T14:30:49.066Z,11.35
2022-11-17T14:33:17.511Z,11.23
2022-11-17T14:35:53.911Z,11.16
2022-11-17T14:38:21.532Z,11.01
2022-11-17T14:40:51.658Z,10.90
2022-11-17T14:43:26.010Z,10.72
2022-11-17T14:45:52.876Z,10.57
2022-11-17T14:48:20.395Z,10.45
2022-11-17T14:50:47.686Z,10.32
2022-11-17T14:53:14.919Z,10.13
2022-11-17T14:55:41.648Z,10.01
2022-11-17T14:58:09.911Z,9.78
2022-11-17T15:00:37.239Z,9.44
2022-11-17T15:03:04.650Z,9.09
2022-11-17T15:05:35.293Z,8.92
2022-11-17T15:08:09.434Z,8.75
2022-11-17T15:10:47.976Z,8.70
2022-11-17T15:13:15.526Z,8.46
2022-11-17T15:15:42.478Z,8.32
2022-11-17T15:18:11.958Z,8.37
2022-11-17T15:20:38.657Z,8.35
2022-11-17T15:23:05.389Z,8.27
2022-11-17T15:25:32.185Z,8.33
2022-11-17T15:27:58.954Z,8.37
2022-11-17T15:30:26.149Z,8.42
2022-11-17T15:32:52.917Z,8.43
2022-11-17T15:35:19.609Z,8.41
2022-11-17T15:37:46.771Z,8.34
2022-11-17T15:40:19.044Z,8.25
2022-11-17T15:42:46.319Z,8.24
2022-11-17T15:45:13.159Z,8.20
2022-11-17T15:47:46.815Z,8.16
2022-11-17T15:50:18.845Z,8.14
2022-11-17T15:53:03.539Z,8.12
2022-11-17T15:55:33.694Z,8.09
2022-11-17T15:58:00.523Z,7.94
2022-11-17T16:00:27.438Z,7.76
2022-11-17T16:02:58.583Z,7.66
2022-11-17T16:05:25.762Z,7.62
2022-11-17T16:07:52.952Z,7.59
2022-11-17T16:10:19.932Z,7.53
2022-11-17T16:12:49.601Z,7.43
2022-11-17T16:15:16.899Z,7.36
2022-11-17T16:17:43.714Z,7.31
2022-11-17T16:20:11.225Z,7.15
2022-11-17T16:22:38.001Z,7.01
2022-11-17T16:25:05.601Z,7.06
2022-11-17T16:27:32.837Z,7.01
2022-11-17T16:29:59.710Z,6.95
2022-11-17T16:32:26.431Z,6.87
2022-11-17T16:34:53.122Z,6.82
2022-11-17T16:37:19.868Z,6.84
2022-11-17T16:39:46.590Z,6.83
2022-11-17T16:42:13.286Z,6.70
2022-11-17T16:44:40.110Z,6.65
2022-11-17T16:47:06.964Z,6.66
2022-11-17T16:49:35.791Z,6.68
2022-11-17T16:52:02.505Z,6.68
2022-11-17T16:54:29.425Z,6.48
2022-11-17T16:56:59.799Z,6.17
2022-11-17T16:59:30.549Z,6.10
2022-11-17T17:01:58.163Z,6.08
2022-11-17T17:04:24.953Z,6.14
2022-11-17T17:06:51.725Z,6.23
2022-11-17T17:09:23.204Z,6.26
2022-11-17T17:11:53.201Z,6.46
2022-11-17T17:14:20.077Z,6.47
2022-11-17T17:16:47.085Z,6.54
2022-11-17T17:19:16.052Z,6.58
2022-11-17T17:21:43.736Z,6.59
2022-11-17T17:24:13.200Z,6.58
2022-11-17T17:26:41.996Z,6.61
2022-11-17T17:29:10.922Z,6.65
2022-11-17T17:31:42.896Z,6.68
2022-11-17T17:34:13.129Z,6.65
2022-11-17T17:36:40.068Z,6.66
2022-11-17T17:39:07.106Z,6.62
2022-11-17T17:41:39.505Z,6.57
2022-11-17T17:44:08.002Z,6.61
2022-11-17T17:46:38.182Z,6.64
2022-11-17T17:49:05.636Z,6.62
2022-11-17T17:51:35.509Z,6.63
2022-11-17T17:54:02.319Z,6.61
2022-11-17T17:56:30.740Z,6.60
2022-11-17T17:58:58.028Z,6.59
2022-11-17T18:01:27.520Z,6.58
2022-11-17T18:04:04.707Z,6.62
2022-11-17T18:06:41.265Z,6.67
2022-11-17T18:09:17.492Z,6.68
2022-11-17T18:11:51.638Z,6.63
2022-11-17T18:14:24.953Z,6.71
2022-11-17T18:16:55.584Z,6.70
2022-11-17T18:19:33.189Z,6.71
2022-11-17T18:22:01.026Z,6.82
2022-11-17T18:24:28.354Z,6.85
2022-11-17T18:26:55.083Z,6.91
2022-11-17T18:29:21.799Z,6.85
2022-11-17T18:31:49.818Z,7.00
2022-11-17T18:34:20.654Z,7.01
2022-11-17T18:36:52.409Z,6.95
2022-11-17T18:39:19.675Z,6.83
2022-11-17T18:41:47.140Z,6.89
2022-11-17T18:44:15.490Z,6.94
2022-11-17T18:46:42.551Z,6.92
2022-11-17T18:49:09.360Z,7.01
2022-11-17T18:51:36.122Z,7.03
2022-11-17T18:54:06.728Z,7.05
2022-11-17T18:56:36.929Z,6.89
2022-11-17T18:59:11.587Z,7.08
2022-11-17T19:01:40.611Z,7.08
2022-11-17T19:04:07.769Z,7.07
2022-11-17T19:06:34.944Z,6.95
2022-11-17T19:09:01.546Z,6.99
2022-11-17T19:11:30.822Z,6.99
2022-11-17T19:13:59.149Z,6.98
2022-11-17T19:16:26.671Z,6.94
2022-11-17T19:18:56.349Z,6.99
2022-11-17T19:21:25.933Z,6.98
2022-11-17T19:23:54.831Z,6.94
2022-11-17T19:26:24.479Z,6.84
2022-11-17T19:28:58.557Z,6.79
2022-11-17T19:31:26.579Z,6.78
2022-11-17T19:33:53.893Z,6.82
2022-11-17T19:36:26.541Z,6.75
2022-11-17T19:38:55.869Z,6.80
2022-11-17T19:41:25.446Z,6.85
2022-11-17T19:43:54.220Z,6.88
2022-11-17T19:46:21.677Z,6.84
2022-11-17T19:48:48.565Z,6.90
2022-11-17T19:51:19.991Z,6.88
2022-11-17T19:53:50.896Z,6.80
2022-11-17T19:56:17.999Z,6.79
2022-11-17T19:58:45.159Z,6.82
2022-11-17T20:01:17.088Z,6.81
2022-11-17T20:03:43.946Z,6.81
2022-11-17T20:06:13.338Z,6.81
2022-11-17T20:08:40.452Z,6.80
2022-11-17T20:11:08.698Z,6.76
2022-11-17T20:13:36.296Z,6.77
2022-11-17T20:16:08.777Z,6.81
2022-11-17T20:18:38.369Z,6.81
2022-11-17T20:21:06.849Z,6.81
2022-11-17T20:23:38.182Z,6.80
2022-11-17T20:26:06.848Z,6.80
2022-11-17T20:28:35.220Z,6.78
2022-11-17T20:31:24.759Z,6.80
2022-11-17T20:33:53.710Z,6.76
2022-11-17T20:36:23.566Z,6.81
2022-11-17T20:38:55.152Z,6.78
2022-11-17T20:41:23.420Z,6.77
2022-11-17T20:43:52.505Z,6.80
2022-11-17T20:46:20.485Z,6.82
2022-11-17T20:48:47.886Z,6.83
2022-11-17T20:51:26.356Z,6.84
2022-11-17T20:53:55.201Z,6.83
2022-11-17T20:56:22.833Z,6.88
2022-11-17T20:58:49.655Z,6.89
2022-11-17T21:01:19.620Z,6.85
2022-11-17T21:03:48.305Z,6.85
2022-11-17T21:06:18.389Z,6.91
2022-11-17T21:08:46.438Z,6.87
2022-11-17T21:11:37.363Z,6.86
2022-11-17T21:14:10.212Z,6.91
2022-11-17T21:16:40.022Z,6.89
2022-11-17T21:19:07.900Z,6.87
2022-11-17T21:21:35.665Z,6.93
2022-11-17T21:24:04.553Z,6.93
2022-11-17T21:26:32.344Z,6.84
2022-11-17T21:29:05.908Z,6.72
2022-11-17T21:31:33.911Z,6.78
2022-11-17T21:34:04.534Z,6.80
2022-11-17T21:36:33.040Z,6.80
2022-11-17T21:39:01.628Z,6.79
2022-11-17T21:41:34.436Z,6.73
2022-11-17T21:44:03.952Z,6.78
2022-11-17T21:46:33.835Z,6.76
2022-11-17T21:49:01.434Z,6.78
2022-11-17T21:51:33.530Z,6.78
2022-11-17T21:54:04.764Z,6.77
2022-11-17T21:56:32.224Z,6.76
2022-11-17T21:59:01.622Z,6.57
2022-11-17T22:01:29.499Z,6.69
2022-11-17T22:03:56.806Z,6.63
2022-11-17T22:06:24.515Z,6.73
2022-11-17T22:08:51.854Z,6.72
2022-11-17T22:11:35.286Z,6.77
2022-11-17T22:14:09.755Z,6.77
2022-11-17T22:16:38.786Z,6.77
2022-11-17T22:19:06.544Z,6.78
2022-11-17T22:21:33.805Z,6.78
2022-11-17T22:24:00.598Z,6.81
2022-11-17T22:26:27.561Z,6.81
2022-11-17T22:28:55.880Z,6.81
2022-11-17T22:31:23.013Z,6.75
2022-11-17T22:33:50.119Z,6.80
2022-11-17T22:36:17.617Z,6.75
2022-11-17T22:38:44.966Z,6.70
2022-11-17T22:41:12.635Z,6.61
2022-11-17T22:43:39.366Z,6.47
2022-11-17T22:46:11.270Z,6.51
2022-11-17T22:48:38.327Z,6.57
2022-11-17T22:51:05.851Z,6.55
2022-11-17T22:53:33.944Z,6.56
2022-11-17T22:56:03.104Z,6.35
2022-11-17T22:58:30.490Z,6.51
2022-11-17T23:00:57.251Z,6.52
2022-11-17T23:03:24.310Z,6.53
2022-11-17T23:05:51.065Z,6.53
2022-11-17T23:08:17.813Z,6.53
2022-11-17T23:10:44.602Z,6.58
2022-11-17T23:13:11.335Z,6.58
2022-11-17T23:15:39.230Z,6.53
2022-11-17T23:18:05.966Z,6.53
2022-11-17T23:20:33.171Z,6.43
2022-11-17T23:22:59.685Z,6.51
2022-11-17T23:25:26.434Z,6.51
2022-11-17T23:27:53.168Z,6.49
2022-11-17T23:30:20.000Z,6.53
2022-11-17T23:32:46.731Z,6.51
2022-11-17T23:35:13.517Z,6.54
2022-11-17T23:37:40.301Z,6.49
2022-11-17T23:40:07.571Z,6.54
2022-11-17T23:42:38.651Z,6.61
2022-11-17T23:45:09.247Z,6.53
2022-11-17T23:47:36.024Z,6.48
2022-11-17T23:50:02.873Z,6.46
2022-11-17T23:52:29.558Z,6.34
2022-11-17T23:54:56.413Z,6.32
2022-11-17T23:57:23.290Z,6.33
2022-11-17T23:59:50.106Z,6.31
